createdAt,value
2022-09-10T00:01:22.387Z,10.45
2022-09-10T00:03:50.023Z,11.18
2022-09-10T00:06:19.665Z,12.00
2022-09-10T00:08:47.054Z,11.60
2022-09-10T00:11:17.282Z,12.37
2022-09-10T00:13:44.086Z,12.98
2022-09-10T00:16:13.492Z,12.32
2022-09-10T00:18:41.089Z,12.88
2022-09-10T00:21:11.819Z,12.95
2022-09-10T00:23:38.431Z,13.10
2022-09-10T00:26:14.850Z,13.82
2022-09-10T00:28:42.096Z,13.60
2022-09-10T00:31:08.471Z,13.50
2022-09-10T00:33:35.295Z,13.82
2022-09-10T00:36:03.147Z,13.30
2022-09-10T00:38:30.003Z,13.30
2022-09-10T00:41:03.507Z,13.68
2022-09-10T00:43:46.639Z,14.15
2022-09-10T00:46:14.524Z,13.77
2022-09-10T00:48:41.312Z,14.67
2022-09-10T00:51:07.703Z,15.02
2022-09-10T00:53:34.099Z,15.10
2022-09-10T00:56:04.537Z,14.80
2022-09-10T00:58:31.852Z,14.65
2022-09-10T01:01:01.345Z,14.10
2022-09-10T01:03:32.456Z,14.77
2022-09-10T01:05:59.628Z,14.85
2022-09-10T01:08:27.454Z,14.63
2022-09-10T01:11:27.516Z,15.18
2022-09-10T01:14:11.428Z,15.00
2022-09-10T01:17:03.528Z,14.70
2022-09-10T01:20:11.162Z,15.38
2022-09-10T01:23:15.752Z,15.40
2022-09-10T01:25:51.442Z,14.88
2022-09-10T01:28:27.625Z,15.57
2022-09-10T01:31:02.244Z,15.98
2022-09-10T01:33:37.298Z,15.57
2022-09-10T01:36:12.599Z,16.23
2022-09-10T01:38:41.895Z,17.08
2022-09-10T01:41:08.531Z,17.00
2022-09-10T01:43:35.071Z,17.23
2022-09-10T01:46:23.034Z,17.10
2022-09-10T01:48:55.504Z,17.13
2022-09-10T01:51:39.877Z,18.88
2022-09-10T01:54:28.409Z,18.20
2022-09-10T01:57:13.911Z,18.08
2022-09-10T01:59:54.494Z,18.10
2022-09-10T02:02:26.459Z,17.50
2022-09-10T02:04:54.730Z,18.13
2022-09-10T02:07:24.473Z,18.17
2022-09-10T02:09:52.158Z,18.17
2022-09-10T02:12:20.959Z,18.23
2022-09-10T02:14:54.012Z,17.55
2022-09-10T02:17:22.902Z,17.45
2022-09-10T02:19:52.208Z,17.57
2022-09-10T02:22:20.276Z,17.83
2022-09-10T02:24:46.624Z,18.33
2022-09-10T02:27:13.001Z,18.90
2022-09-10T02:29:39.981Z,17.08
2022-09-10T02:32:07.036Z,18.80
2022-09-10T02:34:34.091Z,17.65
2022-09-10T02:37:00.663Z,17.98
2022-09-10T02:39:26.994Z,18.42
2022-09-10T02:41:53.607Z,17.52
2022-09-10T02:44:20.115Z,18.17
2022-09-10T02:46:46.520Z,18.48
2022-09-10T02:49:13.170Z,17.92
2022-09-10T02:51:40.818Z,17.60
2022-09-10T02:54:07.196Z,17.23
2022-09-10T02:56:34.207Z,17.97
2022-09-10T02:59:00.576Z,16.77
2022-09-10T03:01:27.895Z,18.27
2022-09-10T03:03:56.745Z,17.50
2022-09-10T03:06:25.143Z,16.70
2022-09-10T03:08:52.197Z,17.20
2022-09-10T03:11:18.772Z,17.88
2022-09-10T03:13:46.143Z,17.40
2022-09-10T03:16:13.457Z,16.23
2022-09-10T03:18:42.996Z,16.42
2022-09-10T03:21:21.552Z,16.50
2022-09-10T03:23:52.871Z,16.00
2022-09-10T03:26:20.749Z,17.05
2022-09-10T03:28:48.057Z,17.45
2022-09-10T03:31:14.698Z,16.95
2022-09-10T03:33:42.178Z,16.97
2022-09-10T03:36:09.696Z,17.45
2022-09-10T03:38:36.174Z,17.60
2022-09-10T03:41:02.951Z,16.55
2022-09-10T03:43:29.736Z,17.23
2022-09-10T03:45:56.580Z,17.20
2022-09-10T03:48:23.792Z,17.05
2022-09-10T03:50:53.085Z,17.42
2022-09-10T03:53:19.651Z,16.75
2022-09-10T03:55:47.415Z,16.88
2022-09-10T03:58:14.976Z,17.53
2022-09-10T04:00:42.915Z,17.05
2022-09-10T04:03:10.970Z,17.73
2022-09-10T04:05:40.846Z,16.58
2022-09-10T04:08:07.561Z,18.17
2022-09-10T04:10:34.065Z,17.43
2022-09-10T04:13:00.416Z,17.15
2022-09-10T04:15:26.791Z,17.75
2022-09-10T04:17:54.930Z,16.92
2022-09-10T04:20:25.289Z,15.95
2022-09-10T04:22:52.182Z,16.90
2022-09-10T04:25:19.734Z,16.77
2022-09-10T04:27:46.855Z,16.52
2022-09-10T04:30:14.020Z,17.17
2022-09-10T04:32:40.472Z,16.63
2022-09-10T04:35:07.738Z,17.80
2022-09-10T04:37:34.835Z,17.65
2022-09-10T04:40:01.509Z,16.70
2022-09-10T04:42:28.316Z,17.75
2022-09-10T04:44:54.665Z,16.60
2022-09-10T04:47:21.154Z,17.47
2022-09-10T04:49:47.515Z,16.88
2022-09-10T04:52:13.893Z,16.52
2022-09-10T04:54:40.275Z,16.90
2022-09-10T04:57:06.798Z,16.85
2022-09-10T04:59:33.341Z,16.73
2022-09-10T05:01:59.752Z,17.00
2022-09-10T05:04:26.208Z,16.45
2022-09-10T05:06:53.226Z,17.40
2022-09-10T05:09:20.675Z,17.90
2022-09-10T05:11:47.514Z,16.10
2022-09-10T05:14:14.115Z,15.80
2022-09-10T05:16:40.750Z,16.75
2022-09-10T05:19:07.378Z,15.63
2022-09-10T05:21:33.767Z,16.65
2022-09-10T05:24:00.279Z,16.17
2022-09-10T05:26:27.707Z,16.90
2022-09-10T05:28:54.854Z,16.55
2022-09-10T05:31:21.291Z,16.17
2022-09-10T05:33:47.771Z,17.25
2022-09-10T05:36:14.738Z,16.67
2022-09-10T05:38:41.505Z,17.33
2022-09-10T05:41:10.945Z,16.13
2022-09-10T05:43:37.382Z,16.08
2022-09-10T05:46:04.728Z,16.05
2022-09-10T05:48:31.345Z,16.00
2022-09-10T05:50:57.759Z,16.10
2022-09-10T05:53:24.191Z,16.17
2022-09-10T05:55:50.641Z,16.67
2022-09-10T05:58:16.972Z,16.20
2022-09-10T06:00:43.922Z,16.00
2022-09-10T06:03:10.485Z,15.68
2022-09-10T06:05:36.982Z,15.55
2022-09-10T06:08:08.036Z,16.58
2022-09-10T06:10:35.617Z,15.50
2022-09-10T06:13:01.964Z,16.20
2022-09-10T06:15:28.291Z,15.80
2022-09-10T06:17:55.808Z,15.20
2022-09-10T06:20:23.306Z,16.63
2022-09-10T06:22:49.731Z,15.50
2022-09-10T06:25:16.224Z,15.10
2022-09-10T06:27:42.625Z,15.85
2022-09-10T06:30:09.303Z,15.40
2022-09-10T06:32:35.761Z,15.07
2022-09-10T06:35:02.101Z,15.50
2022-09-10T06:37:28.440Z,15.57
2022-09-10T06:39:54.828Z,16.50
2022-09-10T06:42:21.207Z,16.20
2022-09-10T06:44:47.592Z,16.45
2022-09-10T06:50:00.259Z,15.50
2022-09-10T06:52:29.005Z,16.30
2022-09-10T06:54:56.430Z,16.58
2022-09-10T06:57:26.203Z,16.00
2022-09-10T06:59:52.633Z,15.90
2022-09-10T07:02:19.012Z,17.43
2022-09-10T07:04:45.376Z,16.92
2022-09-10T07:07:11.739Z,17.05
2022-09-10T07:09:38.096Z,17.00
2022-09-10T07:12:04.830Z,17.30
2022-09-10T07:14:33.105Z,16.77
2022-09-10T07:16:59.442Z,17.05
2022-09-10T07:19:25.778Z,17.40
2022-09-10T07:21:52.155Z,18.08
2022-09-10T07:24:19.979Z,17.00
2022-09-10T07:26:47.085Z,17.00
2022-09-10T07:29:13.456Z,17.00
2022-09-10T07:31:41.524Z,17.80
2022-09-10T07:34:08.562Z,16.63
2022-09-10T07:36:34.985Z,16.35
2022-09-10T07:39:01.895Z,16.70
2022-09-10T07:41:29.742Z,16.63
2022-09-10T07:43:56.207Z,16.35
2022-09-10T07:46:25.439Z,16.95
2022-09-10T07:48:57.562Z,16.17
2022-09-10T07:51:25.788Z,16.77
2022-09-10T07:53:54.147Z,16.80
2022-09-10T07:56:21.201Z,17.70
2022-09-10T07:58:47.535Z,16.83
2022-09-10T08:01:14.102Z,17.60
2022-09-10T08:03:41.085Z,17.80
2022-09-10T08:06:09.047Z,17.25
2022-09-10T08:08:38.264Z,16.95
2022-09-10T08:11:13.520Z,16.88
2022-09-10T08:13:41.574Z,18.63
2022-09-10T08:16:14.739Z,18.07
2022-09-10T08:18:43.041Z,17.45
2022-09-10T08:21:09.602Z,18.00
2022-09-10T08:23:36.997Z,17.48
2022-09-10T08:26:05.233Z,17.50
2022-09-10T08:28:31.640Z,16.80
2022-09-10T08:31:09.159Z,16.92
2022-09-10T08:33:36.491Z,17.27
2022-09-10T08:36:04.636Z,16.08
2022-09-10T08:38:33.740Z,15.55
2022-09-10T08:41:02.436Z,15.03
2022-09-10T08:43:42.793Z,15.55
2022-09-10T08:46:21.167Z,14.93
2022-09-10T08:48:55.027Z,14.98
2022-09-10T08:51:29.939Z,14.05
2022-09-10T08:54:05.491Z,15.23
2022-09-10T08:56:32.836Z,16.05
2022-09-10T08:59:17.659Z,15.40
2022-09-10T09:02:37.810Z,14.10
2022-09-10T09:05:14.128Z,13.88
2022-09-10T09:07:40.632Z,14.70
2022-09-10T09:10:19.464Z,15.32
2022-09-10T09:13:00.965Z,15.30
2022-09-10T09:15:36.890Z,14.85
2022-09-10T09:18:28.304Z,14.98
2022-09-10T09:20:57.927Z,14.97
2022-09-10T09:24:02.812Z,14.90
2022-09-10T09:26:37.496Z,16.27
2022-09-10T09:29:18.979Z,14.73
2022-09-10T09:31:52.288Z,14.82
2022-09-10T09:34:23.826Z,14.67
2022-09-10T09:36:53.804Z,14.88
2022-09-10T09:39:26.317Z,13.50
2022-09-10T09:42:05.713Z,14.98
2022-09-10T09:44:39.416Z,14.07
2022-09-10T09:47:08.802Z,14.33
2022-09-10T09:49:35.364Z,12.82
2022-09-10T09:52:12.939Z,14.32
2022-09-10T09:55:13.162Z,12.90
2022-09-10T09:57:31.718Z,12.32
2022-09-10T10:00:15.603Z,12.40
2022-09-10T10:02:41.998Z,12.68
2022-09-10T10:05:25.333Z,12.50
2022-09-10T10:07:52.637Z,11.52
2022-09-10T10:10:25.065Z,11.73
2022-09-10T10:12:53.947Z,12.93
2022-09-10T10:15:42.082Z,11.90
2022-09-10T10:18:28.421Z,11.75
2022-09-10T10:21:13.247Z,11.55
2022-09-10T10:23:39.803Z,11.40
2022-09-10T10:26:21.153Z,10.63
2022-09-10T10:28:53.880Z,11.32
2022-09-10T10:31:20.603Z,10.88
2022-09-10T10:34:15.088Z,11.55
2022-09-10T10:37:18.845Z,11.35
2022-09-10T10:39:45.221Z,10.13
2022-09-10T10:42:42.344Z,10.82
2022-09-10T10:45:33.814Z,9.68
2022-09-10T10:48:03.963Z,10.50
2022-09-10T10:50:52.648Z,10.32
2022-09-10T10:53:53.741Z,9.87
2022-09-10T10:56:29.043Z,11.02
2022-09-10T10:59:24.787Z,11.10
2022-09-10T11:01:56.317Z,10.77
2022-09-10T11:04:40.210Z,10.85
2022-09-10T11:07:29.592Z,10.47
2022-09-10T11:10:15.431Z,10.73
2022-09-10T11:13:03.349Z,9.65
2022-09-10T11:15:41.512Z,9.75
2022-09-10T11:18:29.677Z,9.75
2022-09-10T11:21:06.213Z,10.07
2022-09-10T11:23:47.661Z,9.38
2022-09-10T11:26:25.474Z,9.38
2022-09-10T11:29:03.752Z,8.52
2022-09-10T11:31:42.001Z,9.43
2022-09-10T11:34:32.825Z,9.20
2022-09-10T11:37:11.748Z,10.40
2022-09-10T11:39:50.253Z,9.38
2022-09-10T11:42:23.379Z,8.93
2022-09-10T11:45:31.098Z,9.02
2022-09-10T11:48:11.210Z,8.60
2022-09-10T11:50:50.688Z,8.13
2022-09-10T11:53:20.704Z,8.73
2022-09-10T11:56:06.675Z,8.32
2022-09-10T11:58:54.411Z,8.15
2022-09-10T12:01:36.515Z,7.80
2022-09-10T12:04:17.399Z,8.13
2022-09-10T12:07:16.594Z,8.02
2022-09-10T12:09:58.162Z,6.45
2022-09-10T12:12:43.049Z,7.32
2022-09-10T12:15:19.721Z,7.40
2022-09-10T12:18:07.138Z,7.28
2022-09-10T12:20:43.323Z,8.00
2022-09-10T12:23:29.232Z,7.97
2022-09-10T12:26:05.430Z,7.57
2022-09-10T12:28:41.260Z,7.03
2022-09-10T12:31:08.800Z,7.65
2022-09-10T12:33:57.667Z,7.55
2022-09-10T12:36:27.051Z,6.43
2022-09-10T12:39:25.522Z,6.43
2022-09-10T12:41:52.259Z,6.70
2022-09-10T12:44:37.566Z,7.13
2022-09-10T12:47:28.495Z,6.55
2022-09-10T12:49:58.973Z,6.57
2022-09-10T12:52:56.482Z,6.93
2022-09-10T12:55:22.845Z,6.70
2022-09-10T12:58:07.081Z,6.55
2022-09-10T13:00:46.652Z,6.32
2022-09-10T13:03:19.717Z,6.78
2022-09-10T13:05:48.730Z,6.57
2022-09-10T13:08:15.005Z,7.37
2022-09-10T13:10:45.705Z,7.53
2022-09-10T13:13:26.701Z,6.90
2022-09-10T13:15:53.755Z,6.78
2022-09-10T13:18:27.927Z,7.57
2022-09-10T13:20:54.449Z,7.40
2022-09-10T13:23:44.960Z,7.43
2022-09-10T13:26:30.956Z,6.85
2022-09-10T13:28:58.182Z,7.07
2022-09-10T13:31:34.952Z,7.70
2022-09-10T13:34:14.104Z,7.63
2022-09-10T13:37:14.862Z,7.82
2022-09-10T13:40:00.018Z,7.45
2022-09-10T13:43:04.751Z,7.68
2022-09-10T13:45:46.893Z,7.10
2022-09-10T13:48:20.927Z,7.57
2022-09-10T13:51:08.355Z,7.55
2022-09-10T13:53:39.534Z,6.65
2022-09-10T13:56:14.319Z,7.20
2022-09-10T13:58:48.432Z,7.72
2022-09-10T14:01:14.910Z,8.00
2022-09-10T14:03:41.717Z,7.80
2022-09-10T14:06:12.257Z,8.65
2022-09-10T14:08:43.553Z,8.10
2022-09-10T14:11:12.971Z,7.57
2022-09-10T14:13:49.099Z,8.10
2022-09-10T14:16:29.982Z,8.50
2022-09-10T14:18:59.337Z,7.68
2022-09-10T14:21:28.914Z,8.93
2022-09-10T14:23:58.043Z,8.98
2022-09-10T14:26:27.279Z,9.37
2022-09-10T14:29:01.275Z,8.55
2022-09-10T14:31:31.838Z,8.65
2022-09-10T14:33:59.418Z,8.63
2022-09-10T14:36:33.395Z,8.18
2022-09-10T14:39:13.954Z,7.83
2022-09-10T14:41:40.508Z,9.07
2022-09-10T14:44:22.223Z,9.02
2022-09-10T14:46:54.084Z,8.43
2022-09-10T14:49:32.848Z,9.18
2022-09-10T14:52:01.421Z,9.47
2022-09-10T14:54:29.456Z,9.40
2022-09-10T14:56:57.992Z,9.90
2022-09-10T14:59:30.609Z,9.90
2022-09-10T15:01:59.083Z,9.55
2022-09-10T15:04:29.899Z,8.27
2022-09-10T15:06:58.246Z,7.78
2022-09-10T15:09:29.252Z,8.27
2022-09-10T15:11:57.155Z,8.63
2022-09-10T15:14:24.835Z,8.43
2022-09-10T15:16:54.855Z,8.17
2022-09-10T15:19:22.232Z,8.75
2022-09-10T15:21:49.336Z,9.55
2022-09-10T15:24:18.460Z,9.40
2022-09-10T15:26:44.914Z,10.70
2022-09-10T15:29:11.871Z,9.93
2022-09-10T15:31:38.938Z,10.50
2022-09-10T15:34:06.939Z,9.82
2022-09-10T15:36:35.318Z,10.50
2022-09-10T15:39:01.697Z,9.52
2022-09-10T15:41:28.049Z,9.80
2022-09-10T15:43:54.402Z,9.70
2022-09-10T15:46:24.235Z,9.75
2022-09-10T15:48:52.235Z,10.23
2022-09-10T15:51:24.056Z,8.82
2022-09-10T15:53:52.364Z,10.13
2022-09-10T15:56:20.286Z,10.75
2022-09-10T15:58:55.498Z,10.55
2022-09-10T16:01:24.943Z,10.25
2022-09-10T16:03:55.363Z,10.80
2022-09-10T16:06:23.895Z,10.97
2022-09-10T16:08:56.930Z,11.52
2022-09-10T16:11:24.903Z,10.52
2022-09-10T16:13:51.332Z,10.65
2022-09-10T16:16:22.884Z,11.05
2022-09-10T16:18:52.570Z,11.40
2022-09-10T16:21:22.360Z,10.95
2022-09-10T16:23:50.549Z,11.85
2022-09-10T16:26:19.939Z,12.40
2022-09-10T16:28:56.286Z,12.02
2022-09-10T16:31:31.351Z,11.77
2022-09-10T16:34:00.042Z,11.73
2022-09-10T16:36:27.032Z,12.65
2022-09-10T16:38:55.481Z,12.15
2022-09-10T16:41:22.989Z,12.50
2022-09-10T16:43:50.313Z,10.77
2022-09-10T16:46:17.309Z,11.90
2022-09-10T16:48:44.784Z,11.20
2022-09-10T16:51:14.096Z,11.43
2022-09-10T16:53:42.205Z,10.35
2022-09-10T16:56:13.658Z,10.27
2022-09-10T16:58:41.376Z,10.13
2022-09-10T17:01:09.197Z,10.85
2022-09-10T17:03:40.037Z,10.75
2022-09-10T17:06:06.827Z,10.32
2022-09-10T17:08:34.141Z,9.70
2022-09-10T17:11:00.506Z,10.23
2022-09-10T17:13:26.833Z,10.60
2022-09-10T17:16:12.162Z,10.23
2022-09-10T17:18:38.629Z,10.80
2022-09-10T17:21:05.115Z,10.60
2022-09-10T17:23:31.498Z,11.30
2022-09-10T17:25:57.843Z,10.30
2022-09-10T17:28:24.172Z,10.68
2022-09-10T17:30:56.324Z,10.82
2022-09-10T17:33:26.751Z,10.93
2022-09-10T17:35:56.556Z,11.02
2022-09-10T17:38:24.885Z,10.43
2022-09-10T17:40:59.986Z,11.50
2022-09-10T17:43:27.565Z,10.57
2022-09-10T17:45:54.272Z,11.27
2022-09-10T17:48:23.301Z,10.55
2022-09-10T17:50:52.753Z,11.07
2022-09-10T17:53:19.155Z,11.85
2022-09-10T17:55:46.386Z,11.45
2022-09-10T17:58:16.019Z,10.70
2022-09-10T18:00:48.645Z,11.77
2022-09-10T18:03:18.210Z,10.80
2022-09-10T18:05:45.769Z,11.10
2022-09-10T18:08:12.256Z,10.98
2022-09-10T18:10:38.860Z,11.97
2022-09-10T18:13:07.489Z,10.93
2022-09-10T18:15:40.526Z,11.65
2022-09-10T18:18:06.955Z,11.38
2022-09-10T18:20:33.314Z,11.70
2022-09-10T18:23:00.504Z,11.40
2022-09-10T18:25:31.298Z,11.63
2022-09-10T18:27:58.507Z,12.32
2022-09-10T18:30:26.443Z,12.25
2022-09-10T18:32:52.816Z,12.40
2022-09-10T18:35:19.766Z,12.17
2022-09-10T18:37:52.349Z,12.73
2022-09-10T18:40:19.510Z,11.43
2022-09-10T18:42:47.672Z,12.05
2022-09-10T18:45:14.298Z,11.95
2022-09-10T18:47:45.011Z,11.57
2022-09-10T18:50:13.081Z,12.23
2022-09-10T18:52:39.485Z,12.80
2022-09-10T18:55:06.387Z,12.85
2022-09-10T18:57:32.746Z,12.65
2022-09-10T18:59:59.713Z,12.57
2022-09-10T19:02:26.189Z,12.45
2022-09-10T19:05:10.677Z,11.48
2022-09-10T19:07:38.384Z,11.75
2022-09-10T19:10:06.915Z,12.02
2022-09-10T19:12:33.403Z,11.37
2022-09-10T19:14:59.784Z,11.68
2022-09-10T19:17:26.135Z,12.52
2022-09-10T19:19:52.620Z,11.75
2022-09-10T19:22:18.978Z,11.75
2022-09-10T19:25:00.787Z,12.70
2022-09-10T19:27:28.955Z,13.57
2022-09-10T19:29:55.807Z,13.23
2022-09-10T19:32:22.286Z,14.15
2022-09-10T19:34:52.091Z,13.63
2022-09-10T19:37:19.444Z,14.53
2022-09-10T19:39:45.838Z,14.55
2022-09-10T19:42:12.625Z,13.90
2022-09-10T19:44:39.023Z,14.50
2022-09-10T19:47:05.400Z,15.05
2022-09-10T19:49:31.864Z,15.40
2022-09-10T19:51:58.201Z,15.52
2022-09-10T19:54:25.602Z,14.30
2022-09-10T19:56:51.996Z,15.45
2022-09-10T19:59:18.362Z,15.80
2022-09-10T20:01:45.804Z,15.20
2022-09-10T20:04:13.882Z,16.30
2022-09-10T20:06:42.407Z,16.63
2022-09-10T20:09:10.029Z,16.92
2022-09-10T20:11:37.150Z,16.35
2022-09-10T20:14:07.847Z,17.00
2022-09-10T20:16:39.399Z,16.42
2022-09-10T20:19:06.953Z,17.20
2022-09-10T20:21:35.312Z,18.05
2022-09-10T20:24:01.715Z,17.52
2022-09-10T20:26:33.335Z,17.57
2022-09-10T20:29:05.823Z,17.40
2022-09-10T20:31:35.606Z,17.63
2022-09-10T20:34:05.201Z,18.30
2022-09-10T20:36:32.707Z,17.95
2022-09-10T20:38:59.203Z,18.20
2022-09-10T20:41:30.016Z,19.73
2022-09-10T20:44:00.907Z,18.40
2022-09-10T20:46:29.641Z,19.08
2022-09-10T20:49:02.765Z,19.63
2022-09-10T20:51:35.346Z,19.17
2022-09-10T20:54:05.998Z,19.33
2022-09-10T20:56:32.687Z,18.30
2022-09-10T20:58:59.783Z,17.83
2022-09-10T21:01:28.467Z,19.67
2022-09-10T21:03:59.140Z,18.60
2022-09-10T21:06:29.112Z,19.70
2022-09-10T21:08:55.980Z,19.80
2022-09-10T21:11:23.296Z,19.50
2022-09-10T21:13:54.758Z,19.60
2022-09-10T21:16:23.861Z,20.33
2022-09-10T21:18:54.786Z,20.92
2022-09-10T21:21:25.361Z,21.02
2022-09-10T21:23:53.914Z,20.60
2022-09-10T21:26:23.217Z,20.23
2022-09-10T21:28:52.802Z,20.90
2022-09-10T21:31:19.181Z,19.92
2022-09-10T21:33:46.169Z,20.70
2022-09-10T21:36:15.988Z,20.38
2022-09-10T21:38:59.874Z,21.58
2022-09-10T21:41:37.962Z,20.97
2022-09-10T21:44:08.595Z,19.95
2022-09-10T21:46:36.206Z,21.80
2022-09-10T21:49:03.446Z,21.77
2022-09-10T21:51:29.880Z,21.63
2022-09-10T21:53:56.882Z,22.13
2022-09-10T21:56:25.837Z,21.00
2022-09-10T21:58:53.594Z,22.02
2022-09-10T22:01:22.472Z,21.58
2022-09-10T22:03:49.651Z,22.38
2022-09-10T22:06:18.467Z,21.33
2022-09-10T22:08:49.249Z,22.10
2022-09-10T22:11:25.124Z,21.50
2022-09-10T22:13:54.159Z,21.15
2022-09-10T22:16:22.490Z,21.17
2022-09-10T22:18:50.197Z,21.10
2022-09-10T22:21:17.552Z,20.80
2022-09-10T22:23:44.538Z,21.40
2022-09-10T22:26:16.380Z,22.15
2022-09-10T22:28:44.486Z,21.92
2022-09-10T22:31:16.489Z,21.73
2022-09-10T22:33:44.752Z,20.80
2022-09-10T22:36:18.810Z,21.92
2022-09-10T22:38:53.435Z,22.23
2022-09-10T22:41:23.042Z,22.45
2022-09-10T22:43:50.375Z,21.30
2022-09-10T22:46:17.804Z,22.25
2022-09-10T22:48:45.292Z,21.25
2022-09-10T22:51:20.255Z,21.45
2022-09-10T22:53:47.132Z,21.45
2022-09-10T22:56:14.651Z,20.67
2022-09-10T22:58:41.694Z,22.75
2022-09-10T23:01:13.182Z,22.17
2022-09-10T23:03:40.861Z,21.23
2022-09-10T23:06:18.851Z,18.67
2022-09-10T23:08:48.264Z,18.50
2022-09-10T23:11:16.504Z,17.48
2022-09-10T23:13:45.395Z,16.58
2022-09-10T23:16:19.142Z,17.58
2022-09-10T23:18:51.538Z,16.40
2022-09-10T23:21:19.338Z,17.83
2022-09-10T23:23:51.459Z,18.20
2022-09-10T23:26:18.268Z,19.33
2022-09-10T23:28:45.548Z,20.08
2022-09-10T23:31:18.142Z,20.00
2022-09-10T23:33:46.672Z,19.63
2022-09-10T23:36:13.447Z,20.05
2022-09-10T23:38:41.494Z,21.38
2022-09-10T23:41:11.907Z,20.73
2022-09-10T23:43:39.296Z,19.67
2022-09-10T23:46:09.530Z,17.97
2022-09-10T23:48:39.828Z,16.30
2022-09-10T23:51:06.703Z,15.43
2022-09-10T23:53:33.422Z,17.40
2022-09-10T23:56:00.730Z,16.80
2022-09-10T23:58:27.087Z,16.83
